Time;durP1;ratioP1;P1;durP2;ratioP2;P2;SDS_P1;SDS_P2;PMS_P1;PMS_P2;Temp;Humidity;BMP_temperature;BMP_pressure;BME280_temperature;BME280_humidity;BME280_pressure;Samples;Min_cycle;Max_cycle;Signal;HPM_P1;HPM_P2
2022/01/16 00:00:04;;;;;;;10.10;9.80;;;0.30;99.90;;;;;;5077151;28;20248;-80
2022/01/16 00:05:12;;;;;;;9.87;9.57;;;0.30;99.90;;;;;;5082301;28;20209;-80
2022/01/16 00:07:41;;;;;;;9.77;9.47;;;0.20;99.90;;;;;;5081542;28;20231;-80
2022/01/16 00:10:11;;;;;;;9.93;9.63;;;0.20;99.90;;;;;;5081211;28;20219;-80
2022/01/16 00:12:42;;;;;;;10.00;9.70;;;0.20;99.90;;;;;;5081363;28;20195;-80
2022/01/16 00:15:13;;;;;;;10.10;9.80;;;0.20;99.90;;;;;;5081175;28;20227;-81
2022/01/16 00:17:52;;;;;;;9.97;9.67;;;0.30;99.90;;;;;;5074762;28;20241;-80
2022/01/16 00:20:20;;;;;;;9.73;9.43;;;0.30;99.90;;;;;;5079560;28;20230;-81
2022/01/16 00:22:49;;;;;;;9.70;9.40;;;0.20;99.90;;;;;;5072247;28;20215;-79
2022/01/16 00:25:17;;;;;;;9.73;9.43;;;0.30;99.90;;;;;;5078425;28;20235;-79
2022/01/16 00:27:46;;;;;;;9.80;9.50;;;0.30;99.90;;;;;;5078382;28;20238;-80
2022/01/16 00:30:24;;;;;;;9.97;9.67;;;0.20;99.90;;;;;;5076988;28;20235;-80
2022/01/16 00:32:59;;;;;;;9.80;9.50;;;0.20;99.90;;;;;;5075672;28;20273;-80
2022/01/16 00:35:26;;;;;;;9.73;9.43;;;0.30;99.90;;;;;;5066681;28;20253;-81
2022/01/16 00:37:54;;;;;;;9.83;9.53;;;0.20;99.90;;;;;;5064606;28;20296;-80
2022/01/16 00:40:22;;;;;;;9.80;9.50;;;0.20;99.90;;;;;;5063609;28;20253;-79
2022/01/16 00:42:54;;;;;;;9.67;9.37;;;0.20;99.90;;;;;;5063949;28;20223;-80
2022/01/16 00:45:24;;;;;;;9.90;9.60;;;0.30;99.90;;;;;;5063660;28;20283;-80
2022/01/16 00:47:52;;;;;;;9.87;9.57;;;0.20;99.90;;;;;;5062749;28;20227;-80
2022/01/16 00:50:20;;;;;;;9.70;9.40;;;0.20;99.90;;;;;;5063015;28;20300;-80
2022/01/16 00:52:49;;;;;;;9.77;9.47;;;0.20;99.90;;;;;;5062640;28;20235;-80
2022/01/16 00:55:19;;;;;;;9.73;9.43;;;0.20;99.90;;;;;;5065764;28;20227;-79
2022/01/16 00:57:48;;;;;;;9.80;9.50;;;0.20;99.90;;;;;;5080086;28;20231;-79
2022/01/16 01:00:17;;;;;;;9.70;9.40;;;0.20;99.90;;;;;;5079770;28;20261;-80
2022/01/16 01:02:56;;;;;;;9.60;9.30;;;0.30;99.90;;;;;;5063996;28;20249;-80
2022/01/16 01:05:25;;;;;;;9.50;9.20;;;0.30;99.90;;;;;;5063433;28;20222;-80
2022/01/16 01:07:55;;;;;;;9.43;9.13;;;0.20;99.90;;;;;;5073587;28;20246;-80
2022/01/16 01:10:29;;;;;;;9.40;9.10;;;0.20;99.90;;;;;;5073437;28;20249;-80
2022/01/16 01:18:37;;;;;;;9.77;9.47;;;0.30;99.90;;;;;;5062101;28;20257;-80
2022/01/16 01:21:16;;;;;;;9.80;9.50;;;0.30;99.90;;;;;;5063210;28;20226;-80
2022/01/16 01:23:44;;;;;;;9.70;9.40;;;0.30;99.90;;;;;;5062631;28;20221;-80
2022/01/16 01:26:13;;;;;;;9.70;9.40;;;0.30;99.90;;;;;;5062973;28;20346;-80
2022/01/16 01:28:42;;;;;;;9.70;9.40;;;0.30;99.90;;;;;;5062789;28;20256;-80
2022/01/16 01:31:14;;;;;;;9.93;9.63;;;0.30;99.90;;;;;;5062919;28;20234;-81
2022/01/16 01:33:46;;;;;;;9.77;9.47;;;0.40;99.90;;;;;;5062950;28;20226;-80
2022/01/16 01:36:13;;;;;;;9.80;9.50;;;0.40;99.90;;;;;;5063078;28;20226;-80
2022/01/16 01:38:42;;;;;;;9.90;9.60;;;0.40;99.90;;;;;;5063427;28;20239;-80
2022/01/16 01:41:11;;;;;;;9.80;9.50;;;0.40;99.90;;;;;;5064412;28;20238;-80
2022/01/16 01:51:56;;;;;;;10.07;9.77;;;0.50;99.90;;;;;;5062782;28;20214;-80
2022/01/16 01:54:24;;;;;;;10.00;9.70;;;0.50;99.90;;;;;;5075516;28;20229;-80
2022/01/16 01:56:55;;;;;;;10.10;9.80;;;0.50;99.90;;;;;;5074311;28;20234;-80
2022/01/16 01:59:22;;;;;;;9.87;9.57;;;0.50;99.90;;;;;;5066781;28;20320;-80
2022/01/16 02:01:52;;;;;;;10.10;9.80;;;0.50;99.90;;;;;;5064637;28;20245;-80
2022/01/16 02:04:23;;;;;;;9.90;9.60;;;0.50;99.90;;;;;;5063166;28;20249;-79
2022/01/16 02:06:51;;;;;;;9.90;9.60;;;0.40;99.90;;;;;;5062484;28;20231;-79
2022/01/16 02:09:19;;;;;;;10.00;9.70;;;0.50;99.90;;;;;;5062330;28;20245;-80
2022/01/16 02:11:49;;;;;;;10.00;9.70;;;0.40;99.90;;;;;;5061311;28;20242;-79
2022/01/16 02:14:31;;;;;;;10.20;9.90;;;0.40;99.90;;;;;;5062727;28;20221;-80
2022/01/16 02:28:20;;;;;;;9.90;9.60;;;0.40;99.90;;;;;;5062382;28;20306;-80
2022/01/16 02:31:13;;;;;;;9.93;9.63;;;0.40;99.90;;;;;;5074897;22;20330;-80
2022/01/16 02:36:32;;;;;;;9.90;9.60;;;0.40;99.90;;;;;;5036110;28;20280;-80
2022/01/16 02:39:08;;;;;;;9.83;9.53;;;0.40;99.90;;;;;;5055177;28;20234;-80
2022/01/16 02:41:36;;;;;;;9.70;9.40;;;0.40;99.90;;;;;;5084966;28;20230;-80
2022/01/16 02:44:16;;;;;;;9.70;9.40;;;0.40;99.90;;;;;;5085774;28;20230;-80
2022/01/16 02:46:44;;;;;;;9.90;9.60;;;0.40;99.90;;;;;;5080373;28;20314;-80
2022/01/16 02:49:22;;;;;;;9.90;9.60;;;0.40;99.90;;;;;;5079330;28;20305;-80
2022/01/16 02:51:52;;;;;;;10.10;9.80;;;0.40;99.90;;;;;;5074630;28;20260;-81
2022/01/16 02:54:22;;;;;;;9.90;9.60;;;0.30;99.90;;;;;;5062965;28;20222;-80
2022/01/16 02:56:50;;;;;;;9.80;9.50;;;0.40;99.90;;;;;;5059737;28;20230;-80
2022/01/16 02:59:18;;;;;;;9.73;9.43;;;0.40;99.90;;;;;;5059547;28;20238;-80
2022/01/16 03:01:47;;;;;;;9.63;9.33;;;0.40;99.90;;;;;;5059506;28;20239;-81
2022/01/16 03:04:14;;;;;;;9.70;9.40;;;0.30;99.90;;;;;;5059054;28;20222;-80
2022/01/16 03:06:42;;;;;;;9.77;9.47;;;0.40;99.90;;;;;;5078474;28;20268;-80
2022/01/16 03:09:10;;;;;;;9.60;9.30;;;0.40;99.90;;;;;;5079323;28;20261;-81
2022/01/16 03:11:46;;;;;;;9.80;9.50;;;0.40;99.90;;;;;;5079607;28;20260;-80
2022/01/16 03:14:17;;;;;;;10.07;9.77;;;0.40;99.90;;;;;;5079895;28;20325;-80
2022/01/16 03:16:48;;;;;;;9.93;9.63;;;0.40;99.90;;;;;;5079243;28;20206;-80
2022/01/16 03:22:03;;;;;;;10.03;9.73;;;0.40;99.90;;;;;;5082302;28;20218;-79
2022/01/16 03:24:35;;;;;;;10.00;9.70;;;0.40;99.90;;;;;;5082736;28;20228;-80
2022/01/16 03:27:06;;;;;;;10.07;9.77;;;0.40;99.90;;;;;;5079486;28;20329;-81
2022/01/16 03:29:35;;;;;;;9.80;9.50;;;0.40;99.90;;;;;;5081196;28;20299;-80
2022/01/16 03:32:07;;;;;;;9.80;9.50;;;0.40;99.90;;;;;;5081977;28;20284;-80
2022/01/16 03:34:34;;;;;;;9.80;9.50;;;0.40;99.90;;;;;;5082886;28;20248;-80
2022/01/16 03:37:03;;;;;;;9.80;9.50;;;0.40;99.90;;;;;;5082880;28;20230;-80
2022/01/16 03:39:30;;;;;;;9.90;9.60;;;0.30;99.90;;;;;;5086763;28;20238;-80
2022/01/16 03:42:00;;;;;;;9.63;9.33;;;0.30;99.90;;;;;;5086624;28;21121;-80
2022/01/16 03:44:30;;;;;;;9.73;9.43;;;0.30;99.90;;;;;;5086829;28;20234;-80
2022/01/16 03:46:58;;;;;;;9.90;9.60;;;0.30;99.90;;;;;;5086127;28;20234;-80
2022/01/16 03:49:28;;;;;;;9.83;9.53;;;0.40;99.90;;;;;;5078027;28;20257;-80
2022/01/16 03:51:58;;;;;;;10.00;9.70;;;0.40;99.90;;;;;;5086292;28;20218;-81
2022/01/16 03:54:30;;;;;;;10.00;9.70;;;0.40;99.90;;;;;;5085382;28;20252;-80
2022/01/16 03:56:59;;;;;;;10.10;9.80;;;0.40;99.90;;;;;;5085699;28;20233;-81
2022/01/16 03:59:28;;;;;;;9.90;9.60;;;0.40;99.90;;;;;;5083263;28;20241;-80
2022/01/16 04:01:56;;;;;;;10.17;9.87;;;0.40;99.90;;;;;;5085013;28;20283;-80
2022/01/16 04:04:24;;;;;;;10.00;9.70;;;0.40;99.90;;;;;;5096856;28;20230;-79
2022/01/16 04:06:51;;;;;;;10.00;9.70;;;0.50;99.90;;;;;;5097790;28;20258;-80
2022/01/16 04:09:19;;;;;;;10.10;9.80;;;0.50;99.90;;;;;;5084987;28;20238;-80
2022/01/16 04:11:52;;;;;;;10.00;9.70;;;0.50;99.90;;;;;;5082517;28;20257;-80
2022/01/16 04:14:26;;;;;;;10.10;9.80;;;0.40;99.90;;;;;;5082687;28;20233;-81
2022/01/16 04:16:56;;;;;;;9.70;9.40;;;0.40;99.90;;;;;;5080391;28;20249;-81
2022/01/16 04:19:23;;;;;;;10.07;9.77;;;0.40;99.90;;;;;;5080267;28;20289;-80
2022/01/16 04:21:54;;;;;;;9.97;9.67;;;0.40;99.90;;;;;;5080479;28;20234;-80
2022/01/16 04:24:22;;;;;;;9.90;9.60;;;0.40;99.90;;;;;;5081530;28;20288;-80
2022/01/16 04:26:49;;;;;;;9.83;9.53;;;0.30;99.90;;;;;;5082468;28;20257;-80
2022/01/16 04:29:17;;;;;;;9.87;9.57;;;0.30;99.90;;;;;;5084713;28;20256;-80
2022/01/16 04:31:44;;;;;;;10.00;9.70;;;0.30;99.90;;;;;;5082115;28;20234;-81
2022/01/16 04:34:14;;;;;;;10.20;9.90;;;0.30;99.90;;;;;;5082425;28;20288;-80
2022/01/16 04:36:41;;;;;;;9.97;9.67;;;0.30;99.90;;;;;;5081106;28;20222;-80
2022/01/16 04:39:14;;;;;;;10.10;9.80;;;0.30;99.90;;;;;;5081084;28;20260;-79
2022/01/16 04:44:27;;;;;;;9.97;9.67;;;0.20;99.90;;;;;;5088407;28;20203;-80
2022/01/16 04:46:55;;;;;;;9.97;9.67;;;0.20;99.90;;;;;;5087598;28;20234;-79
2022/01/16 04:49:24;;;;;;;10.00;9.70;;;0.20;99.90;;;;;;5084336;28;20238;-79
2022/01/16 04:51:51;;;;;;;9.83;9.53;;;0.30;99.90;;;;;;5083253;28;20272;-79
2022/01/16 04:54:19;;;;;;;10.00;9.70;;;0.30;99.90;;;;;;5081467;28;20290;-79
2022/01/16 04:56:47;;;;;;;9.87;9.57;;;0.20;99.90;;;;;;5081128;28;20395;-79
2022/01/16 04:59:14;;;;;;;9.93;9.63;;;0.20;99.90;;;;;;5081101;28;20326;-80
2022/01/16 05:01:42;;;;;;;10.10;9.80;;;0.20;99.90;;;;;;5080591;28;20287;-80
2022/01/16 05:04:10;;;;;;;10.07;9.77;;;0.20;99.90;;;;;;5080308;28;20295;-80
2022/01/16 05:06:39;;;;;;;10.03;9.73;;;0.20;99.90;;;;;;5080419;28;20232;-80
2022/01/16 05:09:07;;;;;;;9.93;9.63;;;0.20;99.90;;;;;;5080271;28;20700;-80
2022/01/16 05:11:34;;;;;;;10.00;9.70;;;0.20;99.90;;;;;;5080539;28;20284;-80
2022/01/16 05:16:47;;;;;;;10.00;9.70;;;0.20;99.90;;;;;;5080703;28;20674;-80
2022/01/16 05:19:16;;;;;;;10.00;9.70;;;0.30;99.90;;;;;;5079902;28;20230;-79
2022/01/16 05:21:45;;;;;;;10.20;9.90;;;0.30;99.90;;;;;;5080078;28;20269;-80
2022/01/16 05:24:13;;;;;;;9.93;9.63;;;0.30;99.90;;;;;;5079901;28;20233;-80
2022/01/16 05:26:43;;;;;;;9.97;9.67;;;0.20;99.90;;;;;;5079603;28;20230;-80
2022/01/16 05:29:11;;;;;;;10.03;9.73;;;0.20;99.90;;;;;;5078911;28;20238;-80
2022/01/16 05:31:44;;;;;;;10.00;9.70;;;0.10;99.90;;;;;;5079567;28;20288;-80
2022/01/16 05:34:12;;;;;;;9.80;9.50;;;0.20;99.90;;;;;;5080280;28;20332;-81
2022/01/16 05:36:40;;;;;;;9.80;9.50;;;0.20;99.90;;;;;;5080506;28;20226;-79
2022/01/16 05:39:09;;;;;;;9.90;9.60;;;0.20;99.90;;;;;;5080312;28;20238;-80
2022/01/16 05:41:36;;;;;;;10.10;9.80;;;0.10;99.90;;;;;;5079736;28;20261;-80
2022/01/16 05:44:05;;;;;;;9.90;9.60;;;0.10;99.90;;;;;;5079435;28;20257;-80
2022/01/16 05:46:32;;;;;;;9.80;9.50;;;0.10;99.90;;;;;;5079434;28;20230;-80
2022/01/16 05:49:00;;;;;;;10.00;9.70;;;0.10;99.90;;;;;;5079356;28;20291;-80
2022/01/16 05:51:28;;;;;;;10.00;9.70;;;0.10;99.90;;;;;;5079913;28;20238;-80
2022/01/16 05:53:56;;;;;;;9.90;9.60;;;0.10;99.90;;;;;;5079333;28;20237;-80
2022/01/16 05:56:26;;;;;;;9.70;9.40;;;0.10;99.90;;;;;;5079523;28;20238;-80
2022/01/16 05:58:53;;;;;;;10.03;9.73;;;0.10;99.90;;;;;;5089281;28;20243;-80
2022/01/16 06:01:21;;;;;;;9.90;9.60;;;0.20;99.90;;;;;;5093064;28;20264;-80
2022/01/16 06:03:49;;;;;;;9.80;9.50;;;0.20;99.90;;;;;;5092162;28;20257;-80
2022/01/16 06:06:16;;;;;;;10.00;9.70;;;0.20;99.90;;;;;;5081816;28;20226;-80
2022/01/16 06:08:44;;;;;;;9.90;9.60;;;0.20;99.90;;;;;;5079973;28;20230;-81
2022/01/16 06:11:12;;;;;;;10.00;9.70;;;0.20;99.90;;;;;;5080359;28;20229;-80
2022/01/16 06:13:41;;;;;;;9.90;9.60;;;0.30;99.90;;;;;;5081259;28;20234;-80
2022/01/16 06:16:08;;;;;;;10.20;9.90;;;0.30;99.90;;;;;;5079597;28;20226;-80
2022/01/16 06:18:36;;;;;;;9.90;9.60;;;0.20;99.90;;;;;;5079358;28;20268;-80
2022/01/16 06:21:04;;;;;;;9.87;9.57;;;0.20;99.90;;;;;;5078085;28;20233;-80
2022/01/16 06:23:32;;;;;;;10.07;9.77;;;0.20;99.90;;;;;;5077205;28;20226;-80
2022/01/16 06:26:00;;;;;;;9.80;9.50;;;0.20;99.90;;;;;;5077896;28;20252;-80
2022/01/16 06:28:29;;;;;;;10.10;9.80;;;0.30;99.90;;;;;;5079169;28;20222;-80
2022/01/16 06:30:59;;;;;;;10.00;9.70;;;0.20;99.90;;;;;;5079384;28;20273;-81
2022/01/16 06:33:28;;;;;;;9.90;9.60;;;0.30;99.90;;;;;;5078748;28;20230;-81
2022/01/16 06:35:55;;;;;;;10.20;9.90;;;0.20;99.90;;;;;;5078115;28;20214;-80
2022/01/16 06:38:23;;;;;;;9.70;9.40;;;0.20;99.90;;;;;;5077058;28;20232;-81
2022/01/16 06:40:51;;;;;;;9.63;9.33;;;0.30;99.90;;;;;;5076778;28;20258;-80
2022/01/16 06:43:18;;;;;;;9.90;9.60;;;0.30;99.90;;;;;;5077565;28;20315;-79
2022/01/16 06:45:46;;;;;;;9.80;9.50;;;0.30;99.90;;;;;;5089172;28;20230;-80
2022/01/16 06:48:15;;;;;;;9.80;9.50;;;0.30;99.90;;;;;;5081085;28;20230;-80
2022/01/16 06:50:43;;;;;;;9.80;9.50;;;0.30;99.90;;;;;;5079391;28;20238;-80
2022/01/16 06:53:10;;;;;;;9.90;9.60;;;0.30;99.90;;;;;;5078909;28;20270;-80
2022/01/16 06:55:38;;;;;;;10.10;9.80;;;0.30;99.90;;;;;;5079371;28;20273;-80
2022/01/16 06:58:06;;;;;;;10.10;9.80;;;0.30;99.90;;;;;;5086441;28;20233;-81
2022/01/16 07:00:34;;;;;;;10.00;9.70;;;0.30;99.90;;;;;;5079773;28;20327;-81
2022/01/16 07:03:01;;;;;;;10.10;9.80;;;0.20;99.90;;;;;;5087920;28;20245;-79
2022/01/16 07:05:30;;;;;;;10.00;9.70;;;0.20;99.90;;;;;;5093156;28;20214;-79
2022/01/16 07:07:58;;;;;;;10.00;9.70;;;0.20;99.90;;;;;;5094001;28;20315;-79
2022/01/16 07:10:26;;;;;;;9.90;9.60;;;0.30;99.90;;;;;;5093160;28;20241;-79
2022/01/16 07:12:53;;;;;;;9.90;9.60;;;0.30;99.90;;;;;;5096539;28;20225;-79
2022/01/16 07:15:21;;;;;;;9.80;9.50;;;0.30;99.90;;;;;;5096438;28;20226;-79
2022/01/16 07:17:49;;;;;;;9.80;9.50;;;0.30;99.90;;;;;;5095266;28;20241;-79
2022/01/16 07:20:16;;;;;;;9.90;9.60;;;0.40;99.90;;;;;;5097900;28;20238;-79
2022/01/16 07:22:46;;;;;;;9.73;9.43;;;0.30;99.90;;;;;;5096866;28;20241;-79
2022/01/16 07:25:15;;;;;;;10.02;9.73;;;0.30;99.90;;;;;;5096003;28;20088;-81
2022/01/16 07:27:42;;;;;;;10.30;10.00;;;0.40;99.90;;;;;;5097800;28;20397;-81
2022/01/16 07:30:11;;;;;;;9.87;9.57;;;0.40;99.90;;;;;;5098912;28;20245;-80
2022/01/16 07:32:39;;;;;;;9.60;9.30;;;0.50;99.90;;;;;;5097546;28;20230;-82
2022/01/16 07:35:08;;;;;;;9.60;9.30;;;0.60;99.90;;;;;;5087602;28;20237;-81
2022/01/16 07:37:36;;;;;;;9.70;9.40;;;0.60;99.90;;;;;;5086712;28;20257;-82
2022/01/16 07:40:06;;;;;;;9.63;9.33;;;0.60;99.90;;;;;;5085702;28;20237;-82
2022/01/16 07:42:34;;;;;;;9.60;9.30;;;0.50;99.90;;;;;;5084920;28;20697;-81
2022/01/16 07:45:01;;;;;;;9.80;9.50;;;0.50;99.90;;;;;;5082296;28;20299;-80
2022/01/16 07:47:29;;;;;;;9.40;9.10;;;0.60;99.90;;;;;;5081409;28;20656;-80
2022/01/16 07:49:57;;;;;;;9.27;8.97;;;0.50;99.90;;;;;;5083440;28;20295;-81
2022/01/16 07:52:25;;;;;;;9.63;9.33;;;0.50;99.90;;;;;;5085603;28;20292;-81
2022/01/16 07:54:52;;;;;;;9.60;9.30;;;0.60;99.90;;;;;;5101689;28;20198;-80
2022/01/16 07:57:21;;;;;;;10.10;9.80;;;0.60;99.90;;;;;;5094359;28;20405;-80
2022/01/16 07:59:50;;;;;;;9.57;9.27;;;0.60;99.90;;;;;;5084964;28;20238;-80
2022/01/16 08:02:18;;;;;;;9.70;9.40;;;0.70;99.90;;;;;;5083575;28;20222;-81
2022/01/16 08:04:46;;;;;;;9.73;9.43;;;0.70;99.90;;;;;;5083053;28;20238;-81
2022/01/16 08:07:13;;;;;;;10.40;10.10;;;0.70;99.90;;;;;;5067712;28;20234;-82
2022/01/16 08:09:43;;;;;;;10.00;9.70;;;0.70;99.90;;;;;;5062303;28;20289;-82
2022/01/16 08:12:12;;;;;;;9.93;9.63;;;0.80;99.90;;;;;;5079921;28;20287;-82
2022/01/16 08:14:42;;;;;;;10.00;9.70;;;0.80;99.90;;;;;;5080661;28;20321;-83
2022/01/16 08:17:10;;;;;;;9.93;9.63;;;0.80;99.90;;;;;;5068308;28;20222;-82
2022/01/16 08:19:38;;;;;;;10.00;9.70;;;0.90;99.90;;;;;;5079949;28;20245;-82
2022/01/16 08:22:06;;;;;;;10.07;9.77;;;0.90;99.90;;;;;;5062233;28;20290;-82
2022/01/16 08:24:33;;;;;;;10.10;9.80;;;0.90;99.90;;;;;;5062193;28;20289;-82
2022/01/16 08:27:01;;;;;;;10.00;9.70;;;0.90;99.90;;;;;;5062092;28;20226;-82
2022/01/16 08:29:29;;;;;;;9.80;9.50;;;0.90;99.90;;;;;;5061667;28;20245;-82
2022/01/16 08:38:16;;;;;;;10.30;10.00;;;0.90;99.90;;;;;;5067429;28;20245;-85
2022/01/16 08:40:56;;;;;;;10.30;10.00;;;1.00;99.90;;;;;;5068616;28;20230;-85
2022/01/16 08:44:13;;;;;;;10.13;9.83;;;1.00;99.90;;;;;;5069378;28;20226;-85
2022/01/16 08:57:26;;;;;;;9.97;9.67;;;1.10;99.90;;;;;;5016802;28;20228;-84
2022/01/16 09:12:18;;;;;;;9.80;9.50;;;1.20;99.90;;;;;;5066834;28;20207;-82
2022/01/16 09:15:09;;;;;;;9.73;9.43;;;1.30;99.90;;;;;;5078294;28;20230;-83
2022/01/16 09:18:21;;;;;;;9.80;9.50;;;1.20;99.90;;;;;;5062818;28;20222;-84
2022/01/16 09:21:03;;;;;;;9.80;9.50;;;1.20;99.90;;;;;;5055373;28;20262;-81
2022/01/16 09:26:29;;;;;;;9.47;9.17;;;1.30;99.90;;;;;;5063863;28;20241;-84
2022/01/16 09:29:20;;;;;;;9.40;9.10;;;1.30;99.90;;;;;;5068056;28;20302;-84
2022/01/16 09:32:17;;;;;;;9.40;9.10;;;1.30;99.90;;;;;;5067320;28;20238;-84
2022/01/16 09:35:01;;;;;;;9.47;9.17;;;1.30;99.90;;;;;;5068965;28;20230;-84
2022/01/16 09:37:58;;;;;;;9.50;9.20;;;1.20;99.90;;;;;;5069040;28;20231;-83
2022/01/16 09:40:44;;;;;;;9.50;9.20;;;1.20;99.90;;;;;;5069334;28;20286;-84
2022/01/16 09:46:34;;;;;;;9.60;9.30;;;1.20;99.90;;;;;;5069255;28;20223;-85
2022/01/16 09:49:47;;;;;;;9.40;9.10;;;1.20;99.90;;;;;;5071693;28;20223;-84
2022/01/16 09:52:53;;;;;;;9.50;9.20;;;1.20;99.90;;;;;;5075505;28;20239;-83
2022/01/16 10:10:09;;;;;;;;;;;;;;;;;;;;;
2022/01/16 11:18:35;;;;;;;9.30;9.00;;;0.70;99.90;;;;;;4961876;28;20328;-88
2022/01/16 11:50:51;;;;;;;9.60;9.30;;;0.40;99.90;;;;;;4857778;29;20244;-85
2022/01/16 12:26:53;;;;;;;9.53;9.23;;;0.30;99.90;;;;;;5041354;28;20361;-85
2022/01/16 14:35:23;;;;;;;9.00;8.80;;;0.90;99.90;;;;;;5031097;28;20232;-78
2022/01/16 14:37:52;;;;;;;8.80;8.60;;;0.90;99.90;;;;;;5037204;28;20224;-79
2022/01/16 14:40:20;;;;;;;8.97;8.77;;;0.90;99.90;;;;;;5037247;28;20227;-79
2022/01/16 14:42:57;;;;;;;8.90;8.70;;;0.90;99.90;;;;;;5036341;28;20232;-78
2022/01/16 14:45:25;;;;;;;8.80;8.60;;;0.90;99.90;;;;;;5036731;28;20227;-79
2022/01/16 14:47:53;;;;;;;9.20;8.90;;;0.90;99.90;;;;;;5037338;28;20212;-78
2022/01/16 14:50:22;;;;;;;9.00;8.80;;;0.90;99.90;;;;;;5031220;28;20240;-78
2022/01/16 14:52:50;;;;;;;8.97;8.77;;;0.90;99.90;;;;;;5028700;28;20263;-78
2022/01/16 14:55:18;;;;;;;8.90;8.70;;;0.90;99.90;;;;;;5029739;28;20216;-78
2022/01/16 14:57:46;;;;;;;8.67;8.47;;;0.90;99.90;;;;;;5031320;28;20256;-78
2022/01/16 15:00:15;;;;;;;8.63;8.43;;;0.80;99.90;;;;;;5026507;28;20231;-79
2022/01/16 15:02:44;;;;;;;8.90;8.70;;;0.80;99.90;;;;;;5024154;28;20274;-79
2022/01/16 15:05:13;;;;;;;8.60;8.40;;;0.90;99.90;;;;;;5023929;28;20251;-80
2022/01/16 15:07:44;;;;;;;8.37;8.17;;;0.90;99.90;;;;;;5020530;28;20278;-80
2022/01/16 15:10:14;;;;;;;8.70;8.50;;;0.90;99.90;;;;;;5020295;28;20292;-80
2022/01/16 15:12:41;;;;;;;8.73;8.53;;;0.90;99.90;;;;;;5020483;28;20298;-78
2022/01/16 15:15:11;;;;;;;8.70;8.50;;;0.90;99.90;;;;;;5019876;28;20282;-79
2022/01/16 15:17:44;;;;;;;8.93;8.73;;;0.90;99.90;;;;;;5020566;28;20284;-79
2022/01/16 15:20:28;;;;;;;8.90;8.70;;;0.90;99.90;;;;;;5017702;28;20228;-79
2022/01/16 15:22:57;;;;;;;9.20;8.90;;;0.90;99.90;;;;;;5017889;28;20235;-78
2022/01/16 15:25:25;;;;;;;9.17;8.87;;;0.90;99.90;;;;;;5020188;28;20237;-78
2022/01/16 15:27:54;;;;;;;9.40;9.10;;;1.00;99.90;;;;;;5020458;28;20248;-78
2022/01/16 15:30:22;;;;;;;9.50;9.20;;;0.90;99.90;;;;;;5020336;28;20239;-79
2022/01/16 15:32:50;;;;;;;9.30;9.00;;;0.90;99.90;;;;;;5022266;28;20247;-79
2022/01/16 15:35:18;;;;;;;9.00;8.73;;;1.00;99.90;;;;;;5027189;28;20239;-79
2022/01/16 15:37:46;;;;;;;8.57;8.37;;;1.00;99.90;;;;;;5021726;28;20236;-79
2022/01/16 15:40:16;;;;;;;9.23;8.93;;;1.00;99.90;;;;;;5021445;28;20426;-80
2022/01/16 15:42:44;;;;;;;9.13;8.83;;;1.00;99.90;;;;;;5018927;28;20303;-79
2022/01/16 15:45:15;;;;;;;9.27;8.97;;;1.00;99.90;;;;;;5022083;28;20286;-79
2022/01/16 15:47:45;;;;;;;8.87;8.67;;;1.00;99.90;;;;;;5020989;28;20251;-79
2022/01/16 15:50:14;;;;;;;9.17;8.87;;;1.00;99.90;;;;;;5021118;28;20279;-82
2022/01/16 15:52:43;;;;;;;8.90;8.70;;;1.00;99.90;;;;;;5020825;28;20247;-79
2022/01/16 15:55:12;;;;;;;9.20;8.90;;;1.00;99.90;;;;;;5020886;28;20238;-79
2022/01/16 15:57:48;;;;;;;8.60;8.40;;;1.00;99.90;;;;;;5021483;28;20224;-80
2022/01/16 16:00:17;;;;;;;9.20;8.90;;;1.10;99.90;;;;;;5021427;28;20318;-79
2022/01/16 16:02:45;;;;;;;9.23;8.93;;;1.10;99.90;;;;;;5020225;28;20256;-78
2022/01/16 16:05:13;;;;;;;9.27;8.97;;;1.10;99.90;;;;;;5021000;28;20240;-79
2022/01/16 16:07:41;;;;;;;9.20;8.90;;;1.10;99.90;;;;;;5020403;28;20228;-80
2022/01/16 16:10:11;;;;;;;9.33;9.03;;;1.10;99.90;;;;;;5021912;28;20265;-80
2022/01/16 16:12:39;;;;;;;9.10;8.80;;;1.10;99.90;;;;;;5021602;28;20238;-80
2022/01/16 16:15:10;;;;;;;9.37;9.07;;;1.10;99.90;;;;;;5021047;28;20251;-80
2022/01/16 16:17:38;;;;;;;9.30;9.00;;;1.10;99.90;;;;;;5022002;28;20237;-80
2022/01/16 16:20:08;;;;;;;9.10;8.80;;;1.10;99.90;;;;;;5027901;28;20232;-79
2022/01/16 16:22:36;;;;;;;9.27;8.97;;;1.20;99.90;;;;;;5027691;28;20271;-80
2022/01/16 16:25:06;;;;;;;9.10;8.80;;;1.20;99.90;;;;;;5028473;28;21162;-79
2022/01/16 16:27:34;;;;;;;8.83;8.63;;;1.20;99.90;;;;;;5027174;28;20291;-81
2022/01/16 16:30:01;;;;;;;8.70;8.50;;;1.20;99.90;;;;;;5027349;28;20260;-80
2022/01/16 16:32:30;;;;;;;8.90;8.70;;;1.20;99.90;;;;;;5022619;28;20263;-79
2022/01/16 16:34:58;;;;;;;8.87;8.67;;;1.20;99.90;;;;;;5028778;28;20232;-79
2022/01/16 16:37:26;;;;;;;8.70;8.50;;;1.30;99.90;;;;;;5031189;28;20228;-79
2022/01/16 16:39:53;;;;;;;8.80;8.60;;;1.30;99.90;;;;;;5034187;28;20216;-79
2022/01/16 16:42:21;;;;;;;8.80;8.60;;;1.30;99.90;;;;;;5033209;28;20232;-80
2022/01/16 16:44:51;;;;;;;8.70;8.50;;;1.30;99.90;;;;;;5030414;28;20239;-79
2022/01/16 16:47:19;;;;;;;8.83;8.63;;;1.30;99.90;;;;;;5029579;28;20255;-79
2022/01/16 16:49:48;;;;;;;8.63;8.43;;;1.30;99.90;;;;;;5032806;28;21142;-79
2022/01/16 16:52:17;;;;;;;8.80;8.60;;;1.30;99.90;;;;;;5030737;28;20247;-79
2022/01/16 16:54:45;;;;;;;9.00;8.70;;;1.30;99.90;;;;;;5028246;28;20279;-79
2022/01/16 16:57:16;;;;;;;9.00;8.70;;;1.30;99.90;;;;;;5028139;28;20228;-79
2022/01/16 16:59:44;;;;;;;9.10;8.80;;;1.30;99.90;;;;;;5029032;28;20225;-79
2022/01/16 17:02:18;;;;;;;9.03;8.77;;;1.20;99.90;;;;;;5028513;28;20236;-79
2022/01/16 17:04:48;;;;;;;8.50;8.30;;;1.30;99.90;;;;;;5027115;28;20252;-79
2022/01/16 17:07:28;;;;;;;8.70;8.50;;;1.30;99.90;;;;;;5032900;28;20224;-79
2022/01/16 17:09:56;;;;;;;8.70;8.50;;;1.30;99.90;;;;;;5031660;28;20228;-80
2022/01/16 17:12:24;;;;;;;8.50;8.30;;;1.30;99.90;;;;;;5024819;28;20236;-79
2022/01/16 17:14:52;;;;;;;9.03;8.73;;;1.30;99.90;;;;;;5035353;28;20243;-79
2022/01/16 17:17:31;;;;;;;8.80;8.60;;;1.30;99.90;;;;;;5035404;28;20244;-80
2022/01/16 17:20:05;;;;;;;9.00;8.70;;;1.30;99.90;;;;;;5033436;28;20239;-80
2022/01/16 17:22:35;;;;;;;8.67;8.47;;;1.30;99.90;;;;;;5030333;28;20323;-80
2022/01/16 17:25:18;;;;;;;9.17;8.87;;;1.30;99.90;;;;;;5026212;28;20229;-80
2022/01/16 17:27:46;;;;;;;8.70;8.50;;;1.30;99.90;;;;;;5020685;28;20323;-79
2022/01/16 17:30:22;;;;;;;9.33;9.03;;;1.20;99.90;;;;;;5021162;28;20232;-79
2022/01/16 17:32:59;;;;;;;8.80;8.60;;;1.20;99.90;;;;;;5020749;28;20235;-80
2022/01/16 17:35:38;;;;;;;9.07;8.80;;;1.30;99.90;;;;;;5020415;28;20383;-79
2022/01/16 17:38:08;;;;;;;8.60;8.40;;;1.20;99.90;;;;;;5020007;28;20746;-79
2022/01/16 17:40:36;;;;;;;8.60;8.40;;;1.20;99.90;;;;;;5020151;28;20290;-79
2022/01/16 17:43:04;;;;;;;9.00;8.70;;;1.20;99.90;;;;;;5022096;28;20240;-80
2022/01/16 17:45:32;;;;;;;9.20;8.90;;;1.30;99.90;;;;;;5022978;28;20243;-80
2022/01/16 17:48:04;;;;;;;8.70;8.50;;;1.30;99.90;;;;;;5023958;28;20232;-80
2022/01/16 17:50:32;;;;;;;9.20;8.90;;;1.30;99.90;;;;;;5023461;28;20255;-79
2022/01/16 17:53:05;;;;;;;9.00;8.73;;;1.30;99.90;;;;;;5022788;28;20240;-81
2022/01/16 17:55:33;;;;;;;9.40;9.10;;;1.40;99.90;;;;;;5024101;28;20331;-81
2022/01/16 17:58:01;;;;;;;9.20;8.90;;;1.40;99.90;;;;;;5022473;28;20224;-80
2022/01/16 18:00:31;;;;;;;8.83;8.63;;;1.40;99.90;;;;;;5024181;28;20299;-81
2022/01/16 18:02:59;;;;;;;9.00;8.70;;;1.50;99.90;;;;;;5019051;28;20295;-78
2022/01/16 18:05:28;;;;;;;9.27;8.97;;;1.50;99.90;;;;;;5019919;28;20235;-80
2022/01/16 18:07:56;;;;;;;9.23;8.93;;;1.50;99.90;;;;;;5021078;28;20235;-79
2022/01/16 18:10:25;;;;;;;8.90;8.70;;;1.50;99.90;;;;;;5019196;28;20274;-78
2022/01/16 18:12:53;;;;;;;9.10;8.80;;;1.60;99.90;;;;;;5017551;28;20290;-79
2022/01/16 18:15:22;;;;;;;9.20;8.90;;;1.60;99.90;;;;;;5018504;28;20232;-78
2022/01/16 18:17:50;;;;;;;8.80;8.60;;;1.60;99.90;;;;;;5016135;28;20311;-78
2022/01/16 18:20:23;;;;;;;9.27;8.97;;;1.60;99.90;;;;;;5017470;28;20240;-78
2022/01/16 18:22:54;;;;;;;9.13;8.83;;;1.60;99.90;;;;;;5021305;28;20232;-80
2022/01/16 18:25:24;;;;;;;8.77;8.57;;;1.60;99.90;;;;;;5021449;28;20245;-79
2022/01/16 18:27:53;;;;;;;9.20;8.90;;;1.60;99.90;;;;;;5027277;28;20234;-79
2022/01/16 18:30:24;;;;;;;9.30;9.00;;;1.70;99.90;;;;;;5017413;28;20251;-79
2022/01/16 18:32:52;;;;;;;9.20;8.90;;;1.70;99.90;;;;;;5017264;28;20240;-79
2022/01/16 18:35:23;;;;;;;8.80;8.60;;;1.70;99.90;;;;;;5017679;28;20232;-78
2022/01/16 18:37:50;;;;;;;8.77;8.57;;;1.70;99.90;;;;;;5019223;28;20287;-79
2022/01/16 18:40:18;;;;;;;8.93;8.70;;;1.70;99.90;;;;;;5019602;28;20244;-79
2022/01/16 18:42:51;;;;;;;9.00;8.70;;;1.60;99.90;;;;;;5019318;28;20235;-79
2022/01/16 18:45:19;;;;;;;8.90;8.70;;;1.60;99.90;;;;;;5019400;28;20295;-79
2022/01/16 18:47:47;;;;;;;8.90;8.70;;;1.60;99.90;;;;;;5025070;28;20255;-79
2022/01/16 18:50:16;;;;;;;9.10;8.80;;;1.60;99.90;;;;;;5022743;28;20232;-80
2022/01/16 18:52:48;;;;;;;9.20;8.90;;;1.60;99.90;;;;;;5019527;28;20231;-79
2022/01/16 18:55:15;;;;;;;9.00;8.70;;;1.60;99.90;;;;;;5018411;28;20259;-79